Time;durP1;ratioP1;P1;durP2;ratioP2;P2;SDS_P1;SDS_P2;PMS_P1;PMS_P2;Temp;Humidity;BMP_temperature;BMP_pressure;BME280_temperature;BME280_humidity;BME280_pressure;Samples;Min_cycle;Max_cycle;Signal;HPM_P1;HPM_P2
2022/03/04 00:00:26;;;;;;;43.95;28.77;;;;;;;1.14;75.72;101964.25;1044308;28;20299;-75
2022/03/04 00:00:57;;;;;;;38.58;28.70;;;;;;;1.08;75.91;101963.91;1039871;28;20295;-75
2022/03/04 00:01:29;;;;;;;41.08;28.42;;;;;;;1.07;76.18;101967.50;1039893;28;20300;-75
2022/03/04 00:02:02;;;;;;;38.95;27.83;;;;;;;1.09;76.09;101965.56;1035735;28;20783;-75
2022/03/04 00:02:34;;;;;;;39.65;28.95;;;;;;;1.07;76.30;101963.06;1037306;28;20768;-75
2022/03/04 00:03:05;;;;;;;36.75;27.15;;;;;;;1.10;76.14;101964.63;1043749;28;20291;-75
2022/03/04 00:03:38;;;;;;;39.58;29.15;;;;;;;1.06;75.98;101963.19;1044035;28;20302;-75
2022/03/04 00:04:10;;;;;;;45.67;29.70;;;;;;;1.07;76.21;101967.50;1044634;28;20299;-75
2022/03/04 00:04:41;;;;;;;40.13;28.92;;;;;;;1.07;76.22;101968.31;1044360;28;20302;-75
2022/03/04 00:05:13;;;;;;;43.55;29.70;;;;;;;1.02;76.54;101970.50;1044005;28;20329;-75
2022/03/04 00:05:45;;;;;;;40.58;30.85;;;;;;;0.97;76.68;101969.22;1044098;28;20299;-75
2022/03/04 00:06:16;;;;;;;41.00;31.15;;;;;;;0.96;76.95;101970.16;1041489;28;20688;-75
2022/03/04 00:06:49;;;;;;;42.55;30.60;;;;;;;0.95;76.95;101976.38;1035829;28;20293;-75
2022/03/04 00:07:20;;;;;;;39.97;30.10;;;;;;;0.91;76.91;101974.00;1036302;28;20312;-75
2022/03/04 00:07:52;;;;;;;42.35;29.17;;;;;;;0.90;76.98;101972.34;1039961;28;20303;-75
2022/03/04 00:08:24;;;;;;;41.08;30.73;;;;;;;0.91;76.71;101973.19;1036400;28;20300;-75
2022/03/04 00:08:56;;;;;;;41.45;29.02;;;;;;;0.95;77.76;101973.75;1036364;28;20308;-75
2022/03/04 00:09:27;;;;;;;47.78;31.35;;;;;;;0.98;77.18;101974.34;1031792;28;20297;-75
2022/03/04 00:09:59;;;;;;;40.85;30.92;;;;;;;0.97;77.08;101971.84;1023787;29;20298;-75
2022/03/04 00:10:31;;;;;;;41.92;30.83;;;;;;;0.92;77.30;101977.47;1027005;28;20321;-75
2022/03/04 00:11:03;;;;;;;40.08;31.63;;;;;;;0.97;77.42;101987.56;1032915;28;20336;-76
2022/03/04 00:11:36;;;;;;;40.53;30.88;;;;;;;1.00;77.12;101977.66;1039453;28;20428;-75
2022/03/04 00:12:08;;;;;;;43.20;30.30;;;;;;;1.00;77.31;101979.44;1044080;28;20402;-76
2022/03/04 00:12:40;;;;;;;48.85;33.15;;;;;;;0.98;77.11;101984.81;1039922;28;20738;-75
2022/03/04 00:13:11;;;;;;;40.22;30.30;;;;;;;0.96;77.42;101972.78;1035985;28;20315;-75
2022/03/04 00:13:43;;;;;;;43.25;32.00;;;;;;;0.98;77.35;101973.50;1032434;28;20653;-76
2022/03/04 00:14:14;;;;;;;38.45;31.40;;;;;;;0.98;77.42;101978.75;1036337;28;20677;-75
2022/03/04 00:14:47;;;;;;;50.80;32.53;;;;;;;0.98;77.23;101981.38;1040702;28;20406;-75
2022/03/04 00:15:18;;;;;;;42.08;31.92;;;;;;;0.97;77.03;101977.91;1037821;28;20297;-75
2022/03/04 00:15:50;;;;;;;44.65;32.33;;;;;;;1.00;77.54;101982.06;1040076;28;20315;-75
2022/03/04 00:16:21;;;;;;;45.67;33.42;;;;;;;1.00;77.28;101980.28;1040068;28;20307;-75
2022/03/04 00:16:53;;;;;;;44.42;33.28;;;;;;;0.99;77.40;101981.25;1037926;28;20288;-75
2022/03/04 00:17:25;;;;;;;43.58;32.67;;;;;;;0.93;77.51;101974.72;1043383;28;20306;-75
2022/03/04 00:17:57;;;;;;;41.75;31.75;;;;;;;0.92;77.43;101980.91;1044241;28;20675;-75
2022/03/04 00:18:28;;;;;;;47.45;34.05;;;;;;;0.91;77.73;101974.00;1040488;28;20707;-75
2022/03/04 00:19:07;;;;;;;45.00;33.75;;;;;;;0.92;77.52;101975.69;1044201;28;20655;-75
2022/03/04 00:19:39;;;;;;;48.28;31.98;;;;;;;0.92;77.43;101980.91;1039785;28;20304;-75
2022/03/04 00:20:10;;;;;;;48.67;34.97;;;;;;;0.91;77.48;101979.25;1041319;28;20691;-75
2022/03/04 00:20:42;;;;;;;43.90;33.00;;;;;;;0.91;77.89;101979.25;1044258;28;20299;-75
2022/03/04 00:21:14;;;;;;;45.35;32.75;;;;;;;0.89;77.78;101978.56;1040279;28;20300;-74
2022/03/04 00:21:49;;;;;;;42.78;32.78;;;;;;;0.90;77.67;101980.22;1043716;28;20310;-74
2022/03/04 00:22:21;;;;;;;45.63;33.38;;;;;;;0.89;77.34;101975.94;1035654;28;20344;-75
2022/03/04 00:22:52;;;;;;;46.63;34.50;;;;;;;0.88;77.68;101973.44;1036717;28;20809;-75
2022/03/04 00:23:24;;;;;;;43.65;32.30;;;;;;;0.89;77.69;101975.94;1035802;28;20297;-75
2022/03/04 00:23:56;;;;;;;42.00;31.52;;;;;;;0.89;77.68;101977.72;1036008;28;20304;-75
2022/03/04 00:24:27;;;;;;;48.33;34.05;;;;;;;0.84;78.09;101975.47;1039802;28;20296;-75
2022/03/04 00:24:59;;;;;;;45.75;31.95;;;;;;;0.83;78.21;101984.31;1036308;28;20304;-75
2022/03/04 00:25:30;;;;;;;40.63;31.70;;;;;;;0.87;78.00;101983.09;1039925;28;20315;-74
2022/03/04 00:26:03;;;;;;;41.80;33.13;;;;;;;0.81;78.07;101988.81;1043855;28;20296;-75
2022/03/04 00:26:36;;;;;;;46.60;32.72;;;;;;;0.78;78.46;101985.59;1037561;28;20304;-75
2022/03/04 00:27:07;;;;;;;45.78;32.38;;;;;;;0.79;78.34;101984.66;1040330;28;20315;-74
2022/03/04 00:27:39;;;;;;;42.50;31.73;;;;;;;0.80;78.40;101988.94;1039461;28;20319;-74
2022/03/04 00:28:11;;;;;;;44.10;30.63;;;;;;;0.83;78.39;101975.59;1040453;28;20314;-74
2022/03/04 00:28:43;;;;;;;39.50;31.17;;;;;;;0.87;78.13;101985.72;1039584;28;20304;-74
2022/03/04 00:29:15;;;;;;;38.33;29.85;;;;;;;0.82;78.36;101984.41;1040286;28;20315;-75
2022/03/04 00:29:50;;;;;;;42.30;31.17;;;;;;;0.84;78.36;101985.13;1043837;28;20315;-74
2022/03/04 00:30:21;;;;;;;40.53;29.83;;;;;;;0.81;78.23;101983.56;1043862;28;20303;-74
2022/03/04 00:30:53;;;;;;;41.00;30.45;;;;;;;0.78;78.73;101988.22;1043990;28;20303;-75
2022/03/04 00:31:27;;;;;;;49.25;30.92;;;;;;;0.79;78.60;101982.84;1039235;28;20306;-74
2022/03/04 00:31:58;;;;;;;43.13;30.92;;;;;;;0.82;78.54;101981.78;1035538;28;20854;-75
2022/03/04 00:32:30;;;;;;;38.45;30.65;;;;;;;0.81;78.67;101988.81;1031758;28;20431;-76
2022/03/04 00:33:02;;;;;;;47.22;32.42;;;;;;;0.73;78.24;101988.59;1032299;28;20692;-76
2022/03/04 00:33:33;;;;;;;41.72;31.67;;;;;;;0.76;78.98;101993.59;1036646;28;20300;-75
2022/03/04 00:34:06;;;;;;;37.63;29.95;;;;;;;0.76;78.54;101990.16;1044111;28;20302;-76
2022/03/04 00:34:38;;;;;;;40.63;30.85;;;;;;;0.63;78.32;101987.69;1039431;28;20308;-75
2022/03/04 00:35:10;;;;;;;43.10;31.40;;;;;;;0.64;78.62;101989.34;1039692;28;20367;-75
2022/03/04 00:35:42;;;;;;;38.55;29.85;;;;;;;0.55;78.72;101995.34;1035804;28;20307;-75
2022/03/04 00:36:13;;;;;;;41.08;31.25;;;;;;;0.52;78.83;101993.78;1036716;28;20296;-75
2022/03/04 00:36:45;;;;;;;39.35;30.17;;;;;;;0.64;78.69;101994.59;1035796;28;20300;-76
2022/03/04 00:37:16;;;;;;;39.35;30.13;;;;;;;0.69;78.86;101989.81;1040237;28;20861;-76
2022/03/04 00:37:48;;;;;;;41.13;30.45;;;;;;;0.64;78.31;101991.97;1041839;28;20296;-76
2022/03/04 00:38:19;;;;;;;37.83;28.52;;;;;;;0.75;78.68;101989.31;1044393;28;20307;-75
2022/03/04 00:38:53;;;;;;;37.33;27.20;;;;;;;0.87;78.30;101988.34;1045987;28;20299;-75
2022/03/04 00:39:25;;;;;;;35.13;27.05;;;;;;;0.87;78.28;101987.50;1039970;28;20299;-75
2022/03/04 00:40:04;;;;;;;38.22;28.50;;;;;;;0.86;78.27;101986.66;1039818;28;20300;-75
2022/03/04 00:40:35;;;;;;;39.58;28.10;;;;;;;0.85;78.32;101979.75;1039122;28;20301;-76
2022/03/04 00:41:07;;;;;;;39.05;28.38;;;;;;;0.86;77.91;101986.66;1043928;28;20376;-75
2022/03/04 00:41:39;;;;;;;37.03;27.67;;;;;;;0.87;77.98;101995.38;1043719;28;20299;-74
2022/03/04 00:42:11;;;;;;;41.53;28.80;;;;;;;0.84;78.10;101987.75;1043993;28;20300;-76
2022/03/04 00:42:42;;;;;;;41.42;28.60;;;;;;;0.85;78.26;101985.00;1039719;28;20314;-75
2022/03/04 00:43:14;;;;;;;40.85;26.40;;;;;;;0.89;78.14;101990.84;1039842;28;20667;-76
2022/03/04 00:43:46;;;;;;;35.83;26.88;;;;;;;0.89;78.33;101991.66;1040176;28;20323;-75
2022/03/04 00:44:18;;;;;;;39.90;28.02;;;;;;;0.88;78.52;101984.75;1040298;28;20506;-75
2022/03/04 00:44:50;;;;;;;39.78;27.00;;;;;;;0.88;78.62;101987.38;1043671;28;20302;-75
2022/03/04 00:45:21;;;;;;;38.65;29.42;;;;;;;0.86;78.21;101991.91;1039745;28;20300;-76
2022/03/04 00:45:53;;;;;;;43.38;27.00;;;;;;;0.81;78.27;101983.56;1040357;28;20315;-76
2022/03/04 00:46:24;;;;;;;37.47;27.70;;;;;;;0.81;78.30;101982.72;1039529;28;20312;-76
2022/03/04 00:46:56;;;;;;;39.33;28.08;;;;;;;0.78;78.36;101988.22;1036074;28;20695;-74
2022/03/04 00:47:28;;;;;;;38.38;27.48;;;;;;;0.80;78.56;101992.38;1037602;28;20296;-75
2022/03/04 00:47:59;;;;;;;39.33;29.10;;;;;;;0.76;78.04;101992.78;1035811;28;20303;-75
2022/03/04 00:48:31;;;;;;;35.67;27.58;;;;;;;0.70;78.92;101981.00;1040380;28;20300;-75
2022/03/04 00:49:04;;;;;;;38.72;27.38;;;;;;;0.60;78.43;101991.41;1041498;28;20306;-75
2022/03/04 00:49:35;;;;;;;35.15;27.00;;;;;;;0.54;78.79;101991.03;1036334;28;20379;-75
2022/03/04 00:50:07;;;;;;;31.92;24.90;;;;;;;0.70;78.60;101986.25;1039683;28;20303;-75
2022/03/04 00:50:39;;;;;;;40.95;27.10;;;;;;;0.75;78.78;101981.44;1039977;28;20303;-75
2022/03/04 00:51:12;;;;;;;36.67;27.02;;;;;;;0.78;78.71;101999.56;1040154;28;20311;-75
2022/03/04 00:51:43;;;;;;;34.65;27.20;;;;;;;0.79;78.35;101988.09;1043848;28;20299;-75
2022/03/04 00:52:15;;;;;;;35.00;27.00;;;;;;;0.83;78.44;101992.16;1039775;28;20811;-76
2022/03/04 00:52:46;;;;;;;37.53;27.17;;;;;;;0.79;78.59;101982.84;1037268;28;20708;-76
2022/03/04 00:53:18;;;;;;;33.33;25.88;;;;;;;0.80;78.52;101991.56;1039861;28;20303;-75
2022/03/04 00:53:49;;;;;;;35.10;27.23;;;;;;;0.78;78.45;101989.06;1038262;28;20305;-75
2022/03/04 00:54:22;;;;;;;38.95;28.10;;;;;;;0.76;78.61;101996.22;1035576;28;20308;-75
2022/03/04 00:54:54;;;;;;;32.40;25.40;;;;;;;0.75;78.65;101994.56;1031246;28;20490;-75
2022/03/04 00:55:25;;;;;;;32.53;25.85;;;;;;;0.74;78.90;102000.75;1028504;28;20310;-75
2022/03/04 00:55:57;;;;;;;32.45;24.60;;;;;;;0.67;79.11;101999.59;1036466;28;20656;-75
2022/03/04 00:56:29;;;;;;;35.28;26.42;;;;;;;0.61;79.10;102002.72;1032105;28;20301;-75
2022/03/04 00:57:01;;;;;;;36.65;26.35;;;;;;;0.63;79.09;102000.81;1028153;28;20305;-75
2022/03/04 00:57:33;;;;;;;33.33;26.48;;;;;;;0.61;79.18;102002.72;1031738;28;20657;-75
2022/03/04 00:58:07;;;;;;;33.53;24.88;;;;;;;0.57;79.53;102002.13;1026534;28;20286;-75
2022/03/04 00:58:40;;;;;;;31.98;25.60;;;;;;;0.58;79.60;102003.78;1033157;28;20729;-75
2022/03/04 00:59:12;;;;;;;35.80;26.42;;;;;;;0.67;79.22;102010.09;1035580;28;20704;-75
2022/03/04 00:59:43;;;;;;;30.63;24.95;;;;;;;0.67;78.77;102002.22;1035842;28;20301;-75
2022/03/04 01:00:15;;;;;;;32.55;25.05;;;;;;;0.71;79.48;101998.38;1036274;28;20297;-75
2022/03/04 01:00:47;;;;;;;35.08;24.92;;;;;;;0.72;79.08;102001.84;1036592;28;20300;-75
2022/03/04 01:01:19;;;;;;;39.83;26.13;;;;;;;0.64;78.81;101999.00;1043912;28;20306;-75
2022/03/04 01:01:51;;;;;;;34.17;25.15;;;;;;;0.45;79.12;102005.72;1043787;28;20284;-75
2022/03/04 01:02:22;;;;;;;41.38;25.83;;;;;;;0.53;79.43;102005.09;1043903;28;20291;-75
2022/03/04 01:02:54;;;;;;;33.00;25.58;;;;;;;0.51;79.55;102009.63;1043969;28;20650;-75
2022/03/04 01:03:26;;;;;;;34.60;26.30;;;;;;;0.47;79.80;102005.59;1044292;28;20288;-76
2022/03/04 01:03:58;;;;;;;32.95;24.83;;;;;;;0.52;79.72;101999.03;1044151;28;20295;-75
2022/03/04 01:04:30;;;;;;;37.05;23.50;;;;;;;0.59;79.55;102008.09;1043646;28;20643;-75
2022/03/04 01:05:01;;;;;;;33.75;25.58;;;;;;;0.49;79.78;102011.53;1043991;28;20295;-75
2022/03/04 01:05:33;;;;;;;36.40;26.08;;;;;;;0.43;79.72;102007.63;1043844;28;20299;-76
2022/03/04 01:06:06;;;;;;;36.80;25.40;;;;;;;0.42;79.70;102007.75;1040005;28;20658;-76
2022/03/04 01:06:38;;;;;;;36.72;25.08;;;;;;;0.46;79.88;102014.41;1043814;28;20306;-75
2022/03/04 01:07:10;;;;;;;34.00;23.23;;;;;;;0.46;79.84;102010.00;1043867;28;20295;-75
2022/03/04 01:07:43;;;;;;;36.65;25.80;;;;;;;0.43;80.02;102012.03;1044668;28;20303;-75
2022/03/04 01:08:15;;;;;;;33.25;25.20;;;;;;;0.49;79.89;102019.41;1043768;28;20314;-75
2022/03/04 01:08:47;;;;;;;37.50;26.38;;;;;;;0.40;79.80;102013.09;1043725;28;20299;-76
2022/03/04 01:09:18;;;;;;;28.90;24.17;;;;;;;0.35;80.28;102011.81;1041184;28;20287;-75
2022/03/04 01:09:50;;;;;;;31.75;24.92;;;;;;;0.39;80.34;102013.22;1036110;28;20307;-75
2022/03/04 01:10:21;;;;;;;32.97;24.70;;;;;;;0.45;80.25;102017.97;1035509;28;20292;-75
2022/03/04 01:10:53;;;;;;;35.13;24.63;;;;;;;0.42;80.17;102005.13;1035843;28;20297;-75
2022/03/04 01:11:25;;;;;;;34.17;25.80;;;;;;;0.43;80.02;102007.63;1036504;28;20305;-75
2022/03/04 01:11:56;;;;;;;30.83;24.67;;;;;;;0.42;80.35;102010.38;1040030;28;20323;-75
2022/03/04 01:12:28;;;;;;;32.20;24.50;;;;;;;0.47;80.01;102016.06;1043973;28;20322;-75
2022/03/04 01:13:02;;;;;;;31.58;23.83;;;;;;;0.44;80.43;102011.06;1043578;28;20316;-75
2022/03/04 01:13:34;;;;;;;33.15;25.23;;;;;;;0.38;80.52;102008.94;1036595;28;20371;-75
2022/03/04 01:14:06;;;;;;;36.03;24.98;;;;;;;0.36;80.32;102019.56;1039835;28;20303;-75
2022/03/04 01:14:37;;;;;;;32.95;24.13;;;;;;;0.39;80.75;102002.75;1039582;28;20299;-75
2022/03/04 01:15:09;;;;;;;31.45;24.42;;;;;;;0.46;80.33;102019.66;1036668;28;20307;-75
2022/03/04 01:15:41;;;;;;;34.28;24.15;;;;;;;0.39;80.25;102015.84;1035723;28;20332;-76
2022/03/04 01:16:12;;;;;;;32.72;23.50;;;;;;;0.40;80.38;102012.28;1036225;28;20297;-75
2022/03/04 01:16:44;;;;;;;33.55;24.70;;;;;;;0.41;80.42;102016.56;1036201;28;20289;-76
2022/03/04 01:17:16;;;;;;;32.75;23.48;;;;;;;0.44;80.22;102016.31;1043781;28;20287;-76
2022/03/04 01:17:47;;;;;;;32.03;23.63;;;;;;;0.46;80.39;102019.66;1044418;28;20399;-76
2022/03/04 01:18:19;;;;;;;33.38;24.17;;;;;;;0.48;80.63;102020.34;1048370;28;20306;-75
2022/03/04 01:18:51;;;;;;;28.85;22.55;;;;;;;0.48;80.20;102013.31;1047128;28;20333;-74
2022/03/04 01:19:22;;;;;;;30.63;22.98;;;;;;;0.45;80.33;102015.38;1043918;28;20627;-75
2022/03/04 01:19:54;;;;;;;35.45;24.63;;;;;;;0.45;80.25;102017.97;1043721;28;20698;-74
2022/03/04 01:20:26;;;;;;;28.40;21.80;;;;;;;0.39;80.40;102019.31;1039795;28;20300;-74
2022/03/04 01:20:57;;;;;;;30.83;22.60;;;;;;;0.30;80.62;102025.28;1043987;28;20291;-75
2022/03/04 01:21:29;;;;;;;31.52;24.45;;;;;;;0.23;80.46;102021.44;1041270;28;20292;-74
2022/03/04 01:22:00;;;;;;;30.15;22.88;;;;;;;0.32;80.43;102023.38;1039591;28;20307;-74
2022/03/04 01:22:32;;;;;;;30.67;23.15;;;;;;;0.25;80.72;102017.75;1043753;28;20300;-75
2022/03/04 01:23:04;;;;;;;34.38;23.83;;;;;;;0.32;80.85;102014.69;1043915;28;20295;-74
2022/03/04 01:23:35;;;;;;;34.00;24.55;;;;;;;0.33;80.80;102011.94;1043685;28;20307;-75
2022/03/04 01:24:07;;;;;;;35.40;22.85;;;;;;;0.32;80.50;102015.50;1044007;28;20295;-75
2022/03/04 01:24:38;;;;;;;35.95;25.20;;;;;;;0.35;80.59;102017.06;1044156;28;20682;-74
2022/03/04 01:25:11;;;;;;;35.08;23.48;;;;;;;0.35;80.77;102017.06;1043616;28;20303;-75
2022/03/04 01:25:42;;;;;;;30.95;22.73;;;;;;;0.36;80.56;102018.72;1039525;28;20304;-74
2022/03/04 01:26:14;;;;;;;31.10;23.70;;;;;;;0.32;80.50;102010.28;1039583;28;20300;-75
2022/03/04 01:26:45;;;;;;;34.40;23.40;;;;;;;0.30;80.93;102010.41;1035301;28;20740;-75
2022/03/04 01:27:18;;;;;;;31.73;23.95;;;;;;;0.28;81.11;102014.09;1036078;28;20312;-74
2022/03/04 01:27:49;;;;;;;34.38;24.27;;;;;;;0.26;80.66;102011.56;1039261;28;20296;-75
2022/03/04 01:28:21;;;;;;;36.92;22.98;;;;;;;0.24;80.77;102010.84;1035558;28;20343;-74
2022/03/04 01:28:52;;;;;;;34.03;25.17;;;;;;;0.25;80.84;102011.69;1035232;28;20304;-74
2022/03/04 01:29:24;;;;;;;40.67;25.65;;;;;;;0.24;80.77;102010.03;1031475;28;20324;-75
2022/03/04 01:29:55;;;;;;;29.63;23.05;;;;;;;0.21;80.94;102005.84;1032005;28;20293;-74
2022/03/04 01:30:27;;;;;;;33.20;23.35;;;;;;;0.19;80.89;102022.66;1031677;28;20300;-74
2022/03/04 01:30:59;;;;;;;36.40;25.30;;;;;;;0.16;80.92;102015.88;1032045;28;20308;-75
2022/03/04 01:31:30;;;;;;;33.50;23.95;;;;;;;0.16;81.21;102013.25;1029198;28;20302;-74
2022/03/04 01:32:02;;;;;;;32.72;23.38;;;;;;;0.18;81.18;102011.34;1031650;28;20325;-74
2022/03/04 01:32:34;;;;;;;30.55;22.83;;;;;;;0.16;81.24;102010.63;1031754;28;20336;-75
2022/03/04 01:33:06;;;;;;;33.53;23.63;;;;;;;0.15;81.61;102010.75;1032269;28;20492;-74
2022/03/04 01:33:38;;;;;;;31.33;24.55;;;;;;;0.06;81.74;102016.72;1035986;28;20677;-74
2022/03/04 01:34:10;;;;;;;32.17;24.60;;;;;;;0.10;81.58;102018.97;1036128;28;20301;-74
2022/03/04 01:34:42;;;;;;;31.30;23.95;;;;;;;0.09;81.48;102014.69;1036214;28;20532;-74
2022/03/04 01:35:13;;;;;;;35.33;26.00;;;;;;;0.06;81.72;102017.53;1039194;28;20311;-75
2022/03/04 01:35:45;;;;;;;35.47;26.38;;;;;;;0.04;81.57;102014.22;1035940;28;20308;-75
2022/03/04 01:36:17;;;;;;;33.15;25.13;;;;;;;0.04;81.81;102014.22;1040308;28;20325;-75
2022/03/04 01:36:49;;;;;;;33.15;25.25;;;;;;;0.06;81.66;102012.31;1037118;28;20296;-74
2022/03/04 01:37:21;;;;;;;35.28;25.00;;;;;;;0.06;81.90;102006.22;1031970;28;20676;-74
2022/03/04 01:37:53;;;;;;;34.10;25.98;;;;;;;0.06;81.96;102004.44;1035473;28;20301;-75
2022/03/04 01:38:24;;;;;;;34.42;25.42;;;;;;;0.03;81.85;102009.09;1035488;28;20296;-74
2022/03/04 01:38:56;;;;;;;34.90;24.77;;;;;;;-0.01;82.08;102003.22;1035217;28;20308;-74
2022/03/04 01:39:28;;;;;;;33.42;24.90;;;;;;;-0.08;81.96;102005.50;1039394;28;20318;-74
2022/03/04 01:40:00;;;;;;;35.83;25.45;;;;;;;-0.07;82.17;102006.34;1040051;28;20718;-75
2022/03/04 01:40:31;;;;;;;40.28;27.48;;;;;;;-0.03;82.13;102002.53;1040090;28;20327;-75
2022/03/04 01:41:04;;;;;;;36.90;25.48;;;;;;;-0.04;82.23;102003.47;1039299;28;20783;-75
2022/03/04 01:41:35;;;;;;;35.28;25.65;;;;;;;-0.04;82.13;102006.09;1035621;28;20297;-74
2022/03/04 01:42:07;;;;;;;33.75;24.48;;;;;;;-0.06;82.02;102002.75;1027942;28;20309;-74
2022/03/04 01:42:57;;;;;;;34.13;23.35;;;;;;;-0.06;82.29;102000.13;1032110;28;20805;-74
2022/03/04 01:43:30;;;;;;;35.63;24.85;;;;;;;-0.04;82.43;101995.63;1034530;28;20304;-75
2022/03/04 01:44:02;;;;;;;36.63;26.35;;;;;;;0.01;82.40;101998.75;1041936;28;20822;-75
2022/03/04 01:44:34;;;;;;;34.58;24.45;;;;;;;-0.03;82.23;101997.28;1043119;28;20809;-75
2022/03/04 01:45:09;;;;;;;35.65;26.15;;;;;;;-0.04;82.49;101995.63;1040368;28;20413;-74
2022/03/04 01:45:40;;;;;;;31.55;26.25;;;;;;;-0.06;82.61;101993.13;1039338;28;20300;-74
2022/03/04 01:46:14;;;;;;;33.70;26.67;;;;;;;-0.07;82.48;101996.69;1037135;28;20463;-74
2022/03/04 01:46:46;;;;;;;31.70;24.95;;;;;;;-0.10;82.35;101990.88;1040376;28;20308;-74
2022/03/04 01:47:18;;;;;;;36.85;26.17;;;;;;;-0.10;82.60;101996.09;1040442;28;20311;-74
2022/03/04 01:47:50;;;;;;;32.33;26.70;;;;;;;-0.07;82.42;101998.47;1039572;28;20839;-74
2022/03/04 01:48:22;;;;;;;34.90;26.33;;;;;;;-0.08;82.76;102000.25;1035351;28;20304;-74
2022/03/04 01:48:54;;;;;;;39.90;27.35;;;;;;;-0.08;82.64;101997.66;1035422;28;20312;-74
2022/03/04 01:49:26;;;;;;;32.97;24.77;;;;;;;-0.06;82.63;101997.53;1036245;28;20297;-75
2022/03/04 01:49:58;;;;;;;35.30;25.20;;;;;;;-0.04;82.41;101996.44;1040207;28;20318;-74
2022/03/04 01:50:30;;;;;;;33.50;24.60;;;;;;;-0.03;82.76;101994.66;1043637;28;20299;-74
2022/03/04 01:51:02;;;;;;;34.10;26.02;;;;;;;-0.05;82.59;101999.19;1040174;28;20292;-74
2022/03/04 01:51:33;;;;;;;34.75;26.77;;;;;;;-0.05;82.40;101996.56;1043685;28;20849;-74
2022/03/04 01:52:06;;;;;;;35.38;26.65;;;;;;;-0.07;82.61;101991.44;1043555;28;20341;-75
2022/03/04 01:52:38;;;;;;;35.47;24.65;;;;;;;-0.05;82.58;101993.94;1043474;28;20729;-74
2022/03/04 01:53:10;;;;;;;36.53;26.75;;;;;;;-0.05;82.54;101996.56;1043951;28;20382;-74
2022/03/04 01:53:42;;;;;;;33.53;26.45;;;;;;;-0.07;82.62;101990.63;1043435;28;20303;-75
2022/03/04 01:54:13;;;;;;;33.80;24.90;;;;;;;-0.06;82.60;101994.91;1039326;28;20304;-74
2022/03/04 01:54:45;;;;;;;32.25;24.40;;;;;;;-0.10;82.41;101990.88;1036297;28;20301;-74
2022/03/04 01:55:16;;;;;;;41.47;26.50;;;;;;;-0.10;82.42;101991.69;1039337;28;20284;-75
2022/03/04 01:55:50;;;;;;;39.80;26.25;;;;;;;-0.11;82.53;101995.28;1039991;28;20423;-75
2022/03/04 01:56:24;;;;;;;38.45;28.17;;;;;;;-0.12;82.68;101990.16;1043577;28;20303;-74
2022/03/04 01:56:56;;;;;;;33.60;27.48;;;;;;;-0.15;82.51;101991.22;1039736;28;20302;-74
2022/03/04 01:57:28;;;;;;;32.63;25.10;;;;;;;-0.15;82.78;101993.00;1035354;28;20656;-74
2022/03/04 01:57:59;;;;;;;35.55;25.75;;;;;;;-0.17;83.04;101997.53;1036326;28;20300;-74
2022/03/04 01:58:31;;;;;;;35.17;27.35;;;;;;;-0.20;82.79;101995.16;1032335;28;20301;-74
2022/03/04 01:59:04;;;;;;;34.85;27.25;;;;;;;-0.18;82.99;101993.25;1035628;28;20316;-75
2022/03/04 01:59:36;;;;;;;37.95;26.77;;;;;;;-0.22;82.68;101997.88;1035364;28;20887;-74
2022/03/04 02:00:10;;;;;;;35.97;25.58;;;;;;;-0.19;82.88;101996.81;1032409;28;20324;-74
2022/03/04 02:00:45;;;;;;;35.03;26.02;;;;;;;-0.20;83.17;102000.38;1039522;28;20304;-74
2022/03/04 02:01:17;;;;;;;33.53;25.75;;;;;;;-0.19;83.10;101997.66;1040727;28;20300;-75
2022/03/04 02:01:48;;;;;;;31.60;24.95;;;;;;;-0.20;83.04;101997.78;1043525;28;20303;-75
2022/03/04 02:02:40;;;;;;;31.85;22.05;;;;;;;-0.23;83.22;102000.63;1043612;28;20282;-74
2022/03/04 02:03:11;;;;;;;34.40;25.40;;;;;;;-0.25;83.02;101997.28;1043674;28;20295;-74
2022/03/04 02:03:44;;;;;;;37.80;25.92;;;;;;;-0.25;83.19;101998.13;1043740;28;20810;-74
2022/03/04 02:04:15;;;;;;;34.92;25.02;;;;;;;-0.23;83.23;102001.47;1043772;28;20306;-75
2022/03/04 02:04:49;;;;;;;33.15;24.83;;;;;;;-0.25;83.03;102003.38;1043553;28;20351;-76
2022/03/04 02:05:21;;;;;;;32.10;24.33;;;;;;;-0.24;83.47;101993.72;1039532;28;20784;-76
2022/03/04 02:05:52;;;;;;;35.65;24.75;;;;;;;-0.22;83.42;101997.06;1039361;28;20322;-76
2022/03/04 02:06:24;;;;;;;33.35;26.63;;;;;;;-0.20;83.38;101997.78;1036318;28;20319;-76
2022/03/04 02:06:55;;;;;;;33.30;24.42;;;;;;;-0.24;83.27;101998.97;1036059;28;20296;-76
2022/03/04 02:07:27;;;;;;;33.28;25.58;;;;;;;-0.30;83.43;102000.25;1039689;28;20752;-76
2022/03/04 02:07:58;;;;;;;29.30;23.42;;;;;;;-0.23;83.45;102000.63;1039501;28;20311;-75
2022/03/04 02:08:30;;;;;;;30.58;24.70;;;;;;;-0.37;83.30;101997.25;1042167;28;20291;-76
2022/03/04 02:09:03;;;;;;;33.58;24.92;;;;;;;-0.27;83.48;101999.16;1044004;28;20291;-76
2022/03/04 02:09:35;;;;;;;29.83;22.45;;;;;;;-0.27;83.42;102004.41;1043422;28;20792;-75
2022/03/04 02:10:08;;;;;;;31.42;24.67;;;;;;;-0.28;83.49;102007.97;1039558;28;20304;-75
2022/03/04 02:10:40;;;;;;;32.65;23.25;;;;;;;-0.29;83.48;101993.22;1035453;28;20293;-75
2022/03/04 02:11:11;;;;;;;31.02;24.23;;;;;;;-0.28;83.49;102000.94;1032239;28;20308;-75
2022/03/04 02:11:44;;;;;;;31.23;24.33;;;;;;;-0.28;83.60;101997.50;1036279;28;20297;-75
2022/03/04 02:12:15;;;;;;;31.65;23.75;;;;;;;-0.28;83.42;101998.34;1036358;28;20296;-76
2022/03/04 02:12:47;;;;;;;32.00;23.70;;;;;;;-0.32;83.47;101997.75;1035947;28;20304;-76
2022/03/04 02:13:19;;;;;;;31.50;23.67;;;;;;;-0.34;83.37;101997.03;1039419;28;20300;-75
2022/03/04 02:13:51;;;;;;;28.48;22.30;;;;;;;-0.33;83.60;101998.69;1039676;28;20322;-75
2022/03/04 02:14:23;;;;;;;33.60;24.55;;;;;;;-0.33;83.48;101993.44;1040163;28;20300;-75
2022/03/04 02:14:55;;;;;;;33.08;23.25;;;;;;;-0.33;83.59;101996.06;1040093;28;20308;-76
2022/03/04 02:15:26;;;;;;;30.00;23.33;;;;;;;-0.32;83.74;101997.75;1043296;28;20310;-75
2022/03/04 02:15:58;;;;;;;31.48;22.80;;;;;;;-0.32;83.75;101997.75;1043455;28;20406;-75
2022/03/04 02:16:40;;;;;;;30.52;23.50;;;;;;;-0.33;83.63;101996.06;1043446;28;20310;-76
2022/03/04 02:17:11;;;;;;;31.33;23.48;;;;;;;-0.35;83.71;101997.13;1043575;28;20306;-76
2022/03/04 02:17:43;;;;;;;31.25;22.88;;;;;;;-0.37;83.84;101994.66;1039211;28;20302;-76
2022/03/04 02:18:17;;;;;;;27.90;21.38;;;;;;;-0.36;83.80;101993.69;1039559;28;20299;-75
2022/03/04 02:18:49;;;;;;;31.70;21.77;;;;;;;-0.35;83.79;101997.97;1036372;28;20423;-75
2022/03/04 02:19:21;;;;;;;31.77;23.27;;;;;;;-0.42;83.55;101991.53;1040364;28;20377;-76
2022/03/04 02:19:53;;;;;;;30.70;22.75;;;;;;;-0.39;83.86;101990.47;1039502;28;20783;-76
2022/03/04 02:20:28;;;;;;;30.55;23.20;;;;;;;-0.44;84.04;101998.69;1036197;28;20300;-75
2022/03/04 02:21:02;;;;;;;29.45;22.38;;;;;;;-0.46;84.29;102000.59;1039615;28;20287;-76
2022/03/04 02:21:34;;;;;;;28.88;21.52;;;;;;;-0.44;84.23;101996.06;1032860;28;20302;-76
2022/03/04 02:22:24;;;;;;;29.55;20.05;;;;;;;-0.52;84.36;102001.06;1031446;28;20284;-76
2022/03/04 02:22:55;;;;;;;30.17;22.60;;;;;;;-0.50;84.42;101998.31;1031429;28;20477;-76
2022/03/04 02:23:27;;;;;;;29.02;21.00;;;;;;;-0.48;84.40;101997.25;1037326;28;20288;-75
2022/03/04 02:23:58;;;;;;;26.85;20.00;;;;;;;-0.45;84.67;102001.41;1042068;28;20302;-75
2022/03/04 02:24:32;;;;;;;30.30;22.35;;;;;;;-0.49;84.78;102000.81;1043700;28;20877;-75
2022/03/04 02:25:05;;;;;;;37.15;21.73;;;;;;;-0.48;84.55;101993.81;1043654;28;20299;-75
2022/03/04 02:25:37;;;;;;;25.75;19.55;;;;;;;-0.52;84.71;101995.00;1039499;28;20379;-76
2022/03/04 02:26:08;;;;;;;27.75;21.33;;;;;;;-0.49;84.22;102000.81;1035411;28;20331;-75
2022/03/04 02:26:40;;;;;;;25.90;20.05;;;;;;;-0.49;84.72;101994.75;1031931;28;20298;-76
2022/03/04 02:27:11;;;;;;;27.48;21.08;;;;;;;-0.51;84.56;101987.03;1032149;28;20297;-75
2022/03/04 02:27:43;;;;;;;27.75;20.13;;;;;;;-0.48;84.75;101996.41;1031143;28;20309;-76